Time;durP1;ratioP1;P1;durP2;ratioP2;P2;SDS_P1;SDS_P2;PMS_P1;PMS_P2;Temp;Humidity;BMP_temperature;BMP_pressure;BME280_temperature;BME280_humidity;BME280_pressure;Samples;Min_cycle;Max_cycle;Signal;HPM_P1;HPM_P2
2023/12/18 00:01:44;;;;;;;8.18;4.10;;;0.00;99.90;;;;;;5014482;28;20226;-74
2023/12/18 00:04:11;;;;;;;5.30;4.75;;;-0.10;99.90;;;;;;5014568;28;20675;-73
2023/12/18 00:06:38;;;;;;;6.28;5.40;;;-0.10;99.90;;;;;;5014296;28;20667;-74
2023/12/18 00:09:04;;;;;;;5.07;3.50;;;-0.10;99.90;;;;;;5014252;28;20579;-74
2023/12/18 00:11:31;;;;;;;8.35;3.90;;;-0.10;99.90;;;;;;5014471;28;20707;-73
2023/12/18 00:13:58;;;;;;;5.10;2.90;;;-0.10;99.90;;;;;;5014232;28;20594;-73
2023/12/18 04:32:41;;;;;;;2.20;2.03;;;-0.30;99.90;;;;;;5042565;22;20319;-89
2023/12/18 04:35:08;;;;;;;3.28;2.80;;;-0.30;99.90;;;;;;4977905;28;20211;-89
2023/12/18 04:37:35;;;;;;;2.67;2.30;;;-0.30;99.90;;;;;;4977307;28;20208;-89
2023/12/18 04:40:03;;;;;;;2.95;2.03;;;-0.40;99.90;;;;;;4978856;28;20215;-90
2023/12/18 04:42:30;;;;;;;2.58;2.13;;;-0.40;99.90;;;;;;4971448;28;20294;-90
2023/12/18 04:45:11;;;;;;;3.65;2.10;;;-0.20;99.90;;;;;;4981855;28;20727;-89
2023/12/18 04:48:01;;;;;;;2.95;2.50;;;-0.40;99.90;;;;;;4989341;28;20210;-93
2023/12/18 04:50:57;;;;;;;2.80;1.52;;;-0.50;99.90;;;;;;4989834;28;20318;-93
2023/12/18 04:53:27;;;;;;;7.95;2.92;;;-0.50;99.90;;;;;;4983651;28;20212;-94
2023/12/18 04:59:36;;;;;;;1.50;1.40;;;-0.50;99.90;;;;;;4938062;28;20208;-92
2023/12/18 05:05:26;;;;;;;2.70;2.50;;;-0.50;99.90;;;;;;4943890;28;20178;-95
2023/12/18 05:11:04;;;;;;;3.33;2.78;;;-0.60;99.90;;;;;;5021603;23;20572;-77
2023/12/18 05:13:31;;;;;;;1.85;1.30;;;-0.50;99.90;;;;;;5005644;28;20205;-76
2023/12/18 05:15:58;;;;;;;4.80;3.05;;;-0.60;99.90;;;;;;5014799;28;20238;-76
2023/12/18 05:18:25;;;;;;;3.22;2.92;;;-0.50;99.90;;;;;;5015891;28;20423;-76
2023/12/18 05:20:53;;;;;;;2.75;2.45;;;-0.50;99.90;;;;;;5013097;28;20590;-76
2023/12/18 05:23:20;;;;;;;3.00;2.70;;;-0.50;99.90;;;;;;5016119;28;20467;-77
2023/12/18 05:25:46;;;;;;;3.78;1.95;;;-0.60;99.90;;;;;;5018400;28;20262;-76
2023/12/18 05:28:14;;;;;;;3.05;2.20;;;-0.60;99.90;;;;;;5016412;28;20663;-76
2023/12/18 05:30:41;;;;;;;2.83;2.25;;;-0.60;99.90;;;;;;5013287;28;20222;-77
2023/12/18 05:33:08;;;;;;;5.38;2.58;;;-0.60;99.90;;;;;;5012945;28;20222;-76
2023/12/18 05:35:35;;;;;;;10.25;2.95;;;-0.60;99.90;;;;;;5013281;28;20213;-76
2023/12/18 05:38:01;;;;;;;2.92;2.72;;;-0.70;99.90;;;;;;5012659;28;20210;-77
2023/12/18 05:40:28;;;;;;;1.77;1.67;;;-0.70;99.90;;;;;;5011656;28;20249;-77
2023/12/18 05:42:55;;;;;;;3.03;2.45;;;-0.70;99.90;;;;;;5012730;28;20207;-77
2023/12/18 05:45:23;;;;;;;2.38;1.90;;;-0.70;99.90;;;;;;5012613;28;20750;-77
2023/12/18 05:47:49;;;;;;;6.22;2.80;;;-0.70;99.90;;;;;;5012529;28;20209;-77
2023/12/18 05:50:16;;;;;;;3.15;2.20;;;-0.70;99.90;;;;;;5011214;28;20265;-77
2023/12/18 05:52:43;;;;;;;3.45;2.30;;;-0.70;99.90;;;;;;5012352;28;20223;-77
2023/12/18 05:55:10;;;;;;;1.60;1.50;;;-0.70;99.90;;;;;;5012018;28;20671;-77
2023/12/18 05:57:37;;;;;;;2.53;1.98;;;-0.70;99.90;;;;;;5012283;28;20202;-77
2023/12/18 06:00:05;;;;;;;3.47;2.78;;;-0.70;99.90;;;;;;5012119;28;20207;-77
2023/12/18 06:02:33;;;;;;;3.75;3.17;;;-0.80;99.90;;;;;;5012182;28;20301;-77
2023/12/18 06:05:00;;;;;;;4.68;2.75;;;-0.70;99.90;;;;;;5012228;28;20210;-77
2023/12/18 06:07:27;;;;;;;5.43;3.95;;;-0.80;99.90;;;;;;5011789;28;20691;-77
2023/12/18 06:09:54;;;;;;;9.25;3.65;;;-0.80;99.90;;;;;;5011559;28;20293;-77
2023/12/18 06:12:21;;;;;;;5.05;4.70;;;-0.80;99.90;;;;;;5011566;28;20241;-76
2023/12/18 06:14:47;;;;;;;3.80;3.15;;;-0.80;99.90;;;;;;5021236;28;20206;-77
2023/12/18 06:17:14;;;;;;;5.47;3.33;;;-0.80;99.90;;;;;;5016573;28;20207;-77
2023/12/18 06:19:43;;;;;;;5.00;4.20;;;-0.80;99.90;;;;;;5011682;28;20202;-77
2023/12/18 06:22:11;;;;;;;4.05;2.95;;;-0.80;99.90;;;;;;5009672;28;20222;-76
2023/12/18 06:24:39;;;;;;;5.00;3.53;;;-0.80;99.90;;;;;;5005251;28;20202;-76
2023/12/18 06:27:06;;;;;;;5.97;4.10;;;-0.90;99.90;;;;;;5011594;28;20305;-77
2023/12/18 06:29:33;;;;;;;5.10;3.30;;;-0.90;99.90;;;;;;5010906;28;20678;-77
2023/12/18 06:32:00;;;;;;;3.08;2.72;;;-0.90;99.90;;;;;;5012246;28;20230;-77
2023/12/18 06:34:27;;;;;;;3.72;2.95;;;-1.00;99.90;;;;;;5011766;28;20470;-77
2023/12/18 06:36:55;;;;;;;3.38;3.08;;;-1.00;99.90;;;;;;5011823;28;20716;-76
2023/12/18 06:39:22;;;;;;;4.18;3.00;;;-1.00;99.90;;;;;;5006198;28;20574;-77
2023/12/18 06:41:48;;;;;;;6.10;2.88;;;-1.00;99.90;;;;;;5011522;28;20602;-76
2023/12/18 06:44:15;;;;;;;4.35;3.60;;;-1.00;99.90;;;;;;5008511;28;20214;-76
2023/12/18 06:46:42;;;;;;;3.25;2.95;;;-1.00;99.90;;;;;;5011033;28;20224;-76
2023/12/18 06:49:08;;;;;;;5.00;3.20;;;-1.10;99.90;;;;;;5010959;28;20210;-76
2023/12/18 06:51:35;;;;;;;3.33;2.97;;;-1.00;99.90;;;;;;5011531;28;20226;-76
2023/12/18 06:54:03;;;;;;;2.70;2.50;;;-1.10;99.90;;;;;;5011335;28;20614;-75
2023/12/18 06:56:30;;;;;;;4.70;2.85;;;-1.10;99.90;;;;;;5009719;28;20207;-75
2023/12/18 06:58:57;;;;;;;4.05;3.20;;;-1.10;99.90;;;;;;5010763;28;20417;-76
2023/12/18 07:01:23;;;;;;;3.22;2.92;;;-1.10;99.90;;;;;;5010847;28;20239;-76
2023/12/18 07:03:50;;;;;;;3.50;3.08;;;-1.10;99.90;;;;;;5011152;28;20216;-76
2023/12/18 07:06:18;;;;;;;5.65;2.97;;;-1.10;99.90;;;;;;5010709;28;20297;-76
2023/12/18 07:08:44;;;;;;;3.58;3.33;;;-1.10;99.90;;;;;;5010700;28;20210;-76
2023/12/18 07:11:13;;;;;;;4.28;3.05;;;-1.10;99.90;;;;;;5010771;28;20234;-76
2023/12/18 07:13:39;;;;;;;3.78;3.50;;;-1.10;99.90;;;;;;5010988;28;20213;-75
2023/12/18 07:16:07;;;;;;;4.07;3.67;;;-1.00;99.90;;;;;;5010798;28;20202;-76
2023/12/18 07:18:34;;;;;;;6.43;3.20;;;-1.00;99.90;;;;;;5010928;28;20206;-76
2023/12/18 07:21:01;;;;;;;2.45;2.25;;;-1.00;99.90;;;;;;5010897;28;20218;-75
2023/12/18 07:23:28;;;;;;;3.92;3.25;;;-1.10;99.90;;;;;;5010729;28;20699;-76
2023/12/18 07:25:54;;;;;;;3.38;3.13;;;-1.00;99.90;;;;;;5010993;28;20269;-76
2023/12/18 07:28:22;;;;;;;5.55;3.97;;;-1.00;99.90;;;;;;5010435;28;20206;-76
2023/12/18 07:30:49;;;;;;;4.15;3.53;;;-0.80;99.90;;;;;;5010447;28;20225;-75
2023/12/18 07:33:17;;;;;;;5.63;4.03;;;-0.80;99.90;;;;;;5010674;28;20717;-77
2023/12/18 07:35:43;;;;;;;3.35;3.05;;;-0.80;99.90;;;;;;5010672;28;20270;-77
2023/12/18 07:38:10;;;;;;;5.82;3.67;;;-0.80;99.90;;;;;;5010314;28;20218;-77
2023/12/18 07:40:37;;;;;;;4.43;3.25;;;-0.80;99.90;;;;;;5010365;28;20223;-77
2023/12/18 07:43:04;;;;;;;4.97;3.75;;;-0.80;99.90;;;;;;5010676;28;20198;-77
2023/12/18 07:45:32;;;;;;;6.35;3.55;;;-0.80;99.90;;;;;;5010688;28;20210;-77
2023/12/18 07:47:59;;;;;;;3.88;3.13;;;-0.80;99.90;;;;;;5008637;28;20206;-76
2023/12/18 07:50:26;;;;;;;5.65;3.22;;;-0.80;99.90;;;;;;5006512;28;20213;-74
2023/12/18 07:52:54;;;;;;;6.50;3.33;;;-0.80;99.90;;;;;;5010766;28;20218;-74
2023/12/18 07:55:22;;;;;;;4.03;3.60;;;-0.80;99.90;;;;;;5010972;28;20207;-75
2023/12/18 07:57:49;;;;;;;3.97;3.20;;;-0.70;99.90;;;;;;5010740;28;20289;-74
2023/12/18 08:00:18;;;;;;;4.22;3.83;;;-0.40;99.90;;;;;;5010348;28;20206;-74
2023/12/18 08:02:46;;;;;;;3.80;3.38;;;0.00;99.90;;;;;;5010262;28;20199;-75
2023/12/18 08:05:13;;;;;;;4.35;3.35;;;0.50;99.90;;;;;;5010027;28;20293;-75
2023/12/18 08:07:41;;;;;;;7.55;3.72;;;1.30;99.90;;;;;;5010909;28;20211;-75
2023/12/18 08:10:09;;;;;;;4.45;3.05;;;2.10;99.90;;;;;;5009946;28;20215;-75
2023/12/18 08:12:37;;;;;;;7.40;3.42;;;2.90;99.90;;;;;;5010032;28;20229;-74
2023/12/18 08:15:05;;;;;;;3.65;3.35;;;3.70;99.90;;;;;;5014434;28;20218;-74
2023/12/18 08:17:38;;;;;;;4.28;3.30;;;4.60;99.90;;;;;;5014440;28;20279;-75
2023/12/18 08:20:08;;;;;;;4.30;2.95;;;5.20;99.90;;;;;;5008139;28;20291;-77
2023/12/18 08:22:37;;;;;;;5.05;3.55;;;5.40;99.90;;;;;;5011952;28;20238;-77
2023/12/18 08:25:04;;;;;;;3.03;2.80;;;5.50;99.90;;;;;;5013237;28;20264;-77
2023/12/18 08:27:33;;;;;;;4.60;4.20;;;5.50;99.90;;;;;;5013739;28;20259;-77
2023/12/18 08:30:00;;;;;;;2.70;2.50;;;5.50;99.90;;;;;;5013478;28;20209;-77
2023/12/18 08:32:27;;;;;;;4.60;3.63;;;5.60;99.90;;;;;;5013193;28;20233;-76
2023/12/18 08:34:54;;;;;;;2.85;2.65;;;5.50;99.90;;;;;;5013746;28;20218;-77
2023/12/18 08:37:22;;;;;;;3.35;3.05;;;5.50;99.90;;;;;;5013392;28;20203;-76
2023/12/18 08:39:49;;;;;;;3.90;3.00;;;5.50;99.90;;;;;;5012983;28;20252;-76
2023/12/18 08:42:16;;;;;;;4.22;3.38;;;5.30;99.90;;;;;;5013644;28;20292;-77
2023/12/18 08:44:43;;;;;;;2.72;2.45;;;5.10;99.90;;;;;;5013536;28;20238;-76
2023/12/18 08:47:10;;;;;;;3.33;3.13;;;4.90;99.90;;;;;;5013307;28;20226;-76
2023/12/18 08:49:37;;;;;;;3.00;2.70;;;4.60;99.90;;;;;;5012475;28;20671;-77
2023/12/18 08:52:04;;;;;;;3.47;2.90;;;4.40;99.90;;;;;;5012786;28;20253;-76
2023/12/18 08:54:33;;;;;;;3.40;2.80;;;4.10;99.90;;;;;;5013730;28;20308;-76
2023/12/18 08:56:59;;;;;;;4.05;2.70;;;3.60;99.90;;;;;;5012814;28;20240;-76
2023/12/18 08:59:26;;;;;;;2.78;2.05;;;3.10;99.90;;;;;;5013369;28;20226;-75
2023/12/18 09:01:53;;;;;;;4.20;3.03;;;2.80;99.90;;;;;;5008009;28;20234;-75
2023/12/18 09:04:20;;;;;;;4.63;4.03;;;2.50;99.90;;;;;;5012930;28;20307;-76
2023/12/18 09:06:47;;;;;;;4.38;3.05;;;2.20;99.90;;;;;;5012978;28;20207;-76
2023/12/18 09:09:15;;;;;;;3.65;3.35;;;2.00;99.90;;;;;;5012753;28;20300;-76
2023/12/18 09:11:43;;;;;;;3.55;3.25;;;1.90;99.90;;;;;;5012375;28;20239;-76
2023/12/18 09:14:10;;;;;;;4.60;2.85;;;1.80;99.90;;;;;;5012698;28;20221;-76
2023/12/18 09:16:37;;;;;;;3.70;3.40;;;1.90;99.90;;;;;;5012718;28;20257;-76
2023/12/18 09:19:04;;;;;;;5.03;4.10;;;2.10;99.90;;;;;;5012361;28;20646;-77
2023/12/18 09:21:31;;;;;;;3.60;3.08;;;2.30;99.90;;;;;;5012647;28;20313;-76
2023/12/18 09:23:58;;;;;;;3.95;3.55;;;2.70;99.90;;;;;;5012564;28;20208;-76
2023/12/18 09:26:25;;;;;;;8.57;4.18;;;3.70;99.90;;;;;;5012058;28;20212;-77
2023/12/18 09:28:53;;;;;;;9.55;4.03;;;6.30;99.90;;;;;;5011956;28;20213;-77
2023/12/18 09:31:20;;;;;;;7.32;5.10;;;9.50;99.90;;;;;;5012480;28;20227;-77
2023/12/18 09:33:47;;;;;;;5.38;4.22;;;12.40;99.90;;;;;;5012060;28;20247;-77
2023/12/18 09:36:14;;;;;;;5.15;4.25;;;14.80;99.90;;;;;;5012577;28;20220;-77
2023/12/18 09:38:41;;;;;;;7.43;4.85;;;16.50;99.90;;;;;;5011447;28;20203;-77
2023/12/18 09:41:08;;;;;;;6.88;5.57;;;17.00;99.00;;;;;;5012085;28;20234;-77
2023/12/18 09:43:36;;;;;;;4.60;4.20;;;17.20;98.80;;;;;;5011382;28;20200;-77
2023/12/18 09:46:11;;;;;;;6.13;4.47;;;18.00;97.50;;;;;;5011585;28;20472;-78
2023/12/18 09:48:39;;;;;;;6.13;4.40;;;18.10;96.70;;;;;;5012119;28;20464;-76
2023/12/18 09:51:10;;;;;;;6.03;5.20;;;18.40;96.50;;;;;;5011565;28;20485;-78
2023/12/18 09:53:37;;;;;;;6.20;4.73;;;19.20;97.50;;;;;;5012119;28;20496;-78
2023/12/18 09:56:05;;;;;;;6.57;5.03;;;20.10;96.90;;;;;;5011536;28;20544;-78
2023/12/18 09:58:32;;;;;;;8.80;5.60;;;21.10;95.40;;;;;;5011620;28;20467;-77
2023/12/18 10:01:00;;;;;;;6.13;5.30;;;22.00;94.40;;;;;;5007727;28;20989;-77
2023/12/18 10:03:28;;;;;;;5.10;4.47;;;23.00;93.70;;;;;;5011946;28;20984;-77
2023/12/18 10:05:54;;;;;;;5.20;4.13;;;23.90;91.70;;;;;;5011349;28;20469;-77
2023/12/18 10:08:21;;;;;;;4.40;4.00;;;24.20;90.20;;;;;;5011432;28;20469;-77
2023/12/18 10:10:48;;;;;;;4.40;3.60;;;24.00;87.20;;;;;;5011365;28;20512;-77
2023/12/18 10:13:15;;;;;;;4.60;3.50;;;22.30;87.30;;;;;;5011280;28;20483;-77
2023/12/18 10:15:42;;;;;;;4.53;3.77;;;21.40;88.10;;;;;;5011511;28;20847;-77
2023/12/18 10:18:10;;;;;;;3.53;3.10;;;21.40;89.10;;;;;;5011329;28;20887;-77
2023/12/18 10:20:39;;;;;;;3.10;2.90;;;22.10;88.60;;;;;;5010709;28;20481;-76
2023/12/18 10:23:07;;;;;;;3.13;2.80;;;23.20;91.10;;;;;;5011430;28;20512;-76
2023/12/18 10:25:36;;;;;;;4.07;2.57;;;23.20;84.20;;;;;;5011632;28;20453;-76
2023/12/18 10:28:03;;;;;;;2.70;2.50;;;23.30;83.80;;;;;;5010930;28;20461;-76
2023/12/18 10:30:30;;;;;;;3.40;2.70;;;23.00;84.10;;;;;;5006895;28;20941;-76
2023/12/18 10:32:59;;;;;;;2.93;2.47;;;22.30;83.70;;;;;;5011036;28;20504;-76
2023/12/18 10:35:27;;;;;;;4.50;2.70;;;21.50;85.80;;;;;;5010851;28;20473;-76
2023/12/18 10:37:56;;;;;;;2.47;2.27;;;20.80;86.70;;;;;;5011011;28;20474;-76
2023/12/18 10:40:25;;;;;;;3.23;2.97;;;21.40;86.40;;;;;;5011237;28;20461;-77
2023/12/18 10:43:02;;;;;;;3.03;2.73;;;22.10;86.10;;;;;;5011616;28;20457;-76
2023/12/18 10:45:33;;;;;;;3.80;2.87;;;21.90;86.10;;;;;;5006883;28;20548;-76
2023/12/18 10:48:01;;;;;;;3.93;3.53;;;22.30;84.90;;;;;;5011043;28;20468;-76
2023/12/18 10:50:30;;;;;;;2.57;2.30;;;23.20;84.80;;;;;;5010824;28;20465;-76
2023/12/18 10:53:04;;;;;;;2.63;2.43;;;23.40;86.30;;;;;;5011038;28;20489;-76
2023/12/18 10:55:33;;;;;;;4.60;2.33;;;24.40;88.90;;;;;;5006876;28;20921;-76
2023/12/18 10:58:05;;;;;;;2.57;2.10;;;25.30;87.10;;;;;;5009693;28;20457;-76
2023/12/18 11:00:33;;;;;;;3.00;2.40;;;26.10;84.50;;;;;;5006798;28;20508;-76
2023/12/18 11:03:02;;;;;;;2.90;1.80;;;26.60;82.50;;;;;;5010896;28;20450;-76
2023/12/18 11:05:30;;;;;;;2.10;1.90;;;27.00;81.60;;;;;;5006129;28;20464;-76
2023/12/18 11:07:59;;;;;;;3.10;2.10;;;27.10;80.70;;;;;;5010555;28;20468;-76
2023/12/18 11:10:26;;;;;;;3.20;2.10;;;27.20;83.80;;;;;;5010809;28;20907;-75
2023/12/18 11:13:00;;;;;;;2.53;1.73;;;26.90;80.70;;;;;;5010487;28;20496;-75
2023/12/18 11:15:35;;;;;;;3.20;2.00;;;26.50;81.10;;;;;;5011059;28;20465;-74
2023/12/18 11:18:11;;;;;;;2.33;1.90;;;26.30;82.30;;;;;;5010693;28;20464;-74
2023/12/18 11:20:42;;;;;;;2.17;1.97;;;26.30;79.40;;;;;;5006743;28;20480;-72
2023/12/18 11:23:11;;;;;;;2.00;1.50;;;26.00;81.20;;;;;;5010653;28;20454;-72
2023/12/18 11:25:39;;;;;;;1.70;1.60;;;25.40;77.50;;;;;;5010974;28;20464;-68
2023/12/18 11:28:07;;;;;;;1.70;1.60;;;24.50;77.80;;;;;;5010167;28;20462;-70
2023/12/18 11:30:35;;;;;;;2.20;2.00;;;23.20;77.60;;;;;;5006745;28;21201;-70
2023/12/18 11:33:04;;;;;;;3.20;2.30;;;22.20;81.30;;;;;;5011017;28;20497;-69
2023/12/18 11:35:33;;;;;;;2.53;2.00;;;20.30;82.20;;;;;;5006450;28;20569;-73
2023/12/18 11:38:06;;;;;;;2.00;1.80;;;18.10;82.90;;;;;;5010819;28;20473;-68
2023/12/18 11:40:46;;;;;;;3.27;2.10;;;17.10;87.00;;;;;;5006593;28;20473;-67
2023/12/18 11:43:34;;;;;;;1.73;1.60;;;17.30;88.90;;;;;;5011159;28;20467;-68
2023/12/18 11:46:02;;;;;;;1.67;1.50;;;17.00;89.10;;;;;;5011108;28;20465;-68
2023/12/18 11:48:29;;;;;;;1.90;1.70;;;16.60;90.10;;;;;;5006842;28;20467;-68
2023/12/18 11:50:56;;;;;;;2.10;1.70;;;16.60;90.10;;;;;;5014455;28;20516;-67
2023/12/18 11:53:33;;;;;;;2.47;2.27;;;16.40;90.40;;;;;;5014411;28;20485;-68
2023/12/18 11:56:07;;;;;;;1.80;1.70;;;16.10;90.20;;;;;;5014711;28;20479;-71
2023/12/18 11:58:38;;;;;;;2.00;1.80;;;16.30;90.60;;;;;;5010242;28;20865;-68
2023/12/18 12:01:06;;;;;;;2.07;1.90;;;16.50;90.30;;;;;;5014430;28;20520;-68
2023/12/18 12:03:34;;;;;;;2.10;1.70;;;16.70;90.80;;;;;;5015635;28;20461;-68
2023/12/18 12:06:03;;;;;;;3.20;1.90;;;17.00;91.20;;;;;;5015208;28;20461;-70
2023/12/18 12:08:30;;;;;;;2.50;2.20;;;17.00;92.10;;;;;;5009947;28;21005;-69
2023/12/18 12:10:58;;;;;;;2.37;2.03;;;16.80;90.30;;;;;;5014369;28;20580;-69
2023/12/18 12:13:27;;;;;;;1.90;1.70;;;16.80;90.30;;;;;;5013904;28;20496;-69
2023/12/18 12:15:55;;;;;;;2.03;1.57;;;16.90;91.30;;;;;;5013951;28;20465;-69
2023/12/18 12:18:23;;;;;;;2.37;1.73;;;16.90;91.50;;;;;;5015207;28;20468;-69
2023/12/18 12:20:49;;;;;;;4.20;2.57;;;16.80;92.00;;;;;;5013859;28;20485;-69
2023/12/18 12:23:17;;;;;;;2.43;1.97;;;16.60;92.90;;;;;;5014221;28;20472;-69
2023/12/18 12:25:44;;;;;;;2.40;1.97;;;16.00;94.60;;;;;;5014331;28;20465;-69
2023/12/18 12:28:11;;;;;;;1.83;1.57;;;15.70;93.80;;;;;;5013598;28;20468;-68
2023/12/18 12:30:40;;;;;;;2.30;2.10;;;15.70;93.70;;;;;;5013773;28;20490;-68
2023/12/18 12:33:07;;;;;;;2.00;1.70;;;15.60;93.70;;;;;;5013755;28;20867;-68
2023/12/18 12:35:33;;;;;;;2.03;1.63;;;15.30;94.10;;;;;;5013945;28;20467;-69
2023/12/18 12:38:02;;;;;;;1.80;1.70;;;15.10;95.00;;;;;;5013530;28;20463;-69
2023/12/18 12:40:37;;;;;;;2.10;1.90;;;14.80;95.10;;;;;;5013717;28;20471;-69
2023/12/18 12:43:05;;;;;;;1.90;1.70;;;14.60;95.50;;;;;;5013398;28;20460;-69
2023/12/18 12:45:32;;;;;;;2.07;1.90;;;14.60;95.30;;;;;;5013847;28;20464;-69
2023/12/18 12:48:00;;;;;;;2.60;2.10;;;14.60;95.20;;;;;;5013269;28;20467;-68
2023/12/18 12:50:27;;;;;;;2.10;1.80;;;14.30;96.40;;;;;;5012778;28;21005;-67
2023/12/18 12:52:57;;;;;;;2.27;1.80;;;13.90;96.30;;;;;;5013266;28;20207;-68
2023/12/18 12:55:23;;;;;;;2.55;1.83;;;13.80;95.90;;;;;;5013642;28;20562;-68
2023/12/18 12:57:50;;;;;;;2.25;1.60;;;13.70;96.20;;;;;;5013528;28;20211;-68
2023/12/18 13:00:19;;;;;;;2.33;1.73;;;13.60;96.30;;;;;;5012265;28;20211;-68
2023/12/18 13:02:46;;;;;;;2.45;1.83;;;13.40;96.80;;;;;;5013368;28;20199;-68
2023/12/18 13:05:14;;;;;;;2.20;1.85;;;13.30;97.90;;;;;;5012893;28;20199;-68
2023/12/18 13:07:41;;;;;;;2.67;1.85;;;13.30;98.30;;;;;;5013384;28;20212;-68
2023/12/18 13:10:10;;;;;;;1.50;1.40;;;13.20;98.90;;;;;;5012617;28;20229;-68
2023/12/18 13:12:37;;;;;;;2.20;1.73;;;13.10;98.80;;;;;;5012633;28;20226;-67
2023/12/18 13:15:05;;;;;;;2.20;1.63;;;12.80;99.00;;;;;;5012960;28;20317;-67
2023/12/18 13:17:31;;;;;;;1.45;1.30;;;12.90;99.40;;;;;;5013659;28;20233;-67
2023/12/18 13:19:58;;;;;;;1.60;1.30;;;13.10;99.40;;;;;;5012972;28;20659;-68
2023/12/18 13:22:26;;;;;;;1.90;1.60;;;13.20;99.50;;;;;;5012853;28;20233;-68
2023/12/18 13:24:53;;;;;;;2.00;1.70;;;13.20;98.90;;;;;;5012885;28;20207;-68
2023/12/18 13:27:20;;;;;;;2.17;1.90;;;13.00;99.00;;;;;;5012370;28;20249;-68
2023/12/18 13:29:47;;;;;;;2.17;1.73;;;12.80;99.10;;;;;;5012603;28;20215;-68
2023/12/18 13:32:13;;;;;;;1.60;1.50;;;12.30;99.90;;;;;;5012471;28;20237;-69
2023/12/18 13:34:41;;;;;;;2.20;1.42;;;11.80;99.90;;;;;;5012736;28;20222;-69
2023/12/18 13:37:08;;;;;;;2.03;1.60;;;11.50;99.90;;;;;;5012186;28;20207;-69
2023/12/18 13:39:37;;;;;;;3.33;3.03;;;11.20;99.90;;;;;;5012553;28;20211;-70
2023/12/18 13:42:04;;;;;;;4.40;3.20;;;11.00;99.90;;;;;;5013265;28;20309;-72
2023/12/18 13:44:31;;;;;;;8.07;4.82;;;10.90;99.90;;;;;;5013056;28;20201;-73
2023/12/18 13:46:59;;;;;;;6.70;5.03;;;10.70;99.90;;;;;;5013449;28;20229;-70
2023/12/18 13:49:26;;;;;;;4.68;4.25;;;10.50;99.90;;;;;;5012472;28;20237;-69
2023/12/18 13:51:53;;;;;;;4.10;3.70;;;10.40;99.90;;;;;;5012192;28;20230;-69
2023/12/18 13:54:20;;;;;;;9.77;3.78;;;10.20;99.90;;;;;;5012156;28;20238;-69
2023/12/18 13:56:48;;;;;;;5.30;3.28;;;10.10;99.90;;;;;;5012335;28;20207;-69
2023/12/18 13:59:15;;;;;;;3.50;2.92;;;10.00;99.90;;;;;;5011584;28;20213;-69
2023/12/18 14:01:42;;;;;;;2.78;2.53;;;9.90;99.90;;;;;;5011897;28;20230;-69
2023/12/18 14:04:09;;;;;;;2.40;2.20;;;9.70;99.90;;;;;;5011838;28;20234;-69
2023/12/18 14:06:37;;;;;;;4.05;3.03;;;9.50;99.90;;;;;;5011712;28;20203;-68
2023/12/18 14:09:04;;;;;;;2.58;2.35;;;9.40;99.90;;;;;;5011401;28;20718;-68
2023/12/18 14:11:31;;;;;;;4.10;2.92;;;9.20;99.90;;;;;;5011162;28;20237;-71
2023/12/18 14:14:00;;;;;;;2.95;2.65;;;9.10;99.90;;;;;;5011849;28;20724;-67
2023/12/18 14:16:26;;;;;;;3.88;3.47;;;9.00;99.90;;;;;;5012078;28;20549;-69
2023/12/18 14:18:54;;;;;;;4.70;3.40;;;8.90;99.90;;;;;;5010242;28;20602;-71
2023/12/18 14:21:21;;;;;;;7.35;3.53;;;8.80;99.90;;;;;;5007354;28;20226;-72
2023/12/18 14:23:48;;;;;;;2.83;2.60;;;8.70;99.90;;;;;;5012106;28;20209;-70
2023/12/18 14:26:15;;;;;;;6.25;4.30;;;8.50;99.90;;;;;;5011609;28;20233;-69
2023/12/18 14:28:42;;;;;;;5.43;3.80;;;8.40;99.90;;;;;;5011293;28;20204;-71
2023/12/18 14:31:10;;;;;;;7.78;4.05;;;8.30;99.90;;;;;;5011683;28;20631;-70
2023/12/18 14:33:37;;;;;;;7.07;3.45;;;8.10;99.90;;;;;;5011907;28;20215;-71
2023/12/18 14:36:05;;;;;;;5.55;4.03;;;8.00;99.90;;;;;;5011470;28;20292;-68
2023/12/18 14:38:33;;;;;;;4.97;3.80;;;7.80;99.90;;;;;;5011284;28;20638;-69
2023/12/18 14:40:59;;;;;;;6.93;4.85;;;7.70;99.90;;;;;;5010987;28;20250;-70
2023/12/18 14:43:26;;;;;;;7.90;4.43;;;7.70;99.90;;;;;;5010309;28;20217;-69
2023/12/18 14:45:54;;;;;;;4.57;4.00;;;7.60;99.90;;;;;;5011393;28;20224;-69
2023/12/18 14:48:22;;;;;;;5.53;3.20;;;7.60;99.90;;;;;;5010783;28;20217;-69
2023/12/18 14:50:49;;;;;;;8.80;3.50;;;7.50;99.90;;;;;;5006053;28;20228;-69
2023/12/18 14:53:15;;;;;;;5.25;3.13;;;7.40;99.90;;;;;;5010498;28;20221;-69
2023/12/18 14:55:42;;;;;;;4.32;2.80;;;7.30;99.90;;;;;;5010603;28;20217;-69
2023/12/18 14:58:09;;;;;;;4.07;2.92;;;7.20;99.90;;;;;;5009929;28;20223;-69
2023/12/18 15:00:36;;;;;;;3.58;2.25;;;7.10;99.90;;;;;;5010680;28;20219;-69
2023/12/18 15:03:05;;;;;;;3.60;2.92;;;7.00;99.90;;;;;;5010825;28;20679;-72
2023/12/18 15:05:33;;;;;;;3.92;2.40;;;6.90;99.90;;;;;;5008216;28;20210;-69
2023/12/18 15:07:59;;;;;;;2.55;2.10;;;6.70;99.90;;;;;;5010511;28;20217;-69
2023/12/18 15:10:26;;;;;;;3.00;2.70;;;6.60;99.90;;;;;;5009897;28;20218;-70
2023/12/18 15:12:53;;;;;;;4.13;3.42;;;6.50;99.90;;;;;;5010861;28;20213;-68
2023/12/18 15:15:20;;;;;;;9.23;2.95;;;6.40;99.90;;;;;;5010263;28;20695;-69
2023/12/18 15:17:47;;;;;;;7.47;3.10;;;6.30;99.90;;;;;;5010738;28;20225;-69
2023/12/18 15:20:13;;;;;;;3.35;3.05;;;6.20;99.90;;;;;;5009984;28;20210;-69
2023/12/18 15:22:41;;;;;;;3.65;2.90;;;6.10;99.90;;;;;;5014341;28;20199;-69
2023/12/18 15:25:08;;;;;;;4.93;3.10;;;5.90;99.90;;;;;;5016801;28;20206;-69
2023/12/18 15:27:35;;;;;;;6.38;2.88;;;5.80;99.90;;;;;;5017402;28;20213;-69
2023/12/18 15:30:03;;;;;;;4.25;2.97;;;5.70;99.90;;;;;;5017149;28;20312;-68
2023/12/18 15:32:30;;;;;;;5.05;3.42;;;5.70;99.90;;;;;;5008142;28;20715;-69
2023/12/18 15:34:56;;;;;;;3.90;3.10;;;5.60;99.90;;;;;;5013699;28;20478;-69
2023/12/18 15:37:24;;;;;;;3.97;3.45;;;5.50;99.90;;;;;;5016653;28;20206;-69
2023/12/18 15:39:56;;;;;;;5.07;3.22;;;5.40;99.90;;;;;;5017597;28;20198;-70
2023/12/18 15:42:23;;;;;;;2.92;2.20;;;5.40;99.90;;;;;;5014595;28;20277;-69
2023/12/18 15:44:54;;;;;;;5.55;2.92;;;5.30;99.90;;;;;;5017090;28;20198;-70
2023/12/18 15:47:51;;;;;;;;;;;;;;;;;;;;;
2023/12/18 15:50:18;;;;;;;3.17;2.88;;;5.00;99.90;;;;;;5011437;28;20229;-71
2023/12/18 15:52:45;;;;;;;4.97;2.92;;;4.90;99.90;;;;;;5016347;28;20207;-71
2023/12/18 15:55:13;;;;;;;5.88;2.47;;;4.90;99.90;;;;;;5008290;28;20734;-71
2023/12/18 15:57:40;;;;;;;2.22;2.05;;;4.80;99.90;;;;;;5014209;28;20221;-71
2023/12/18 16:00:09;;;;;;;3.40;3.05;;;4.70;99.90;;;;;;5016599;28;20210;-71
2023/12/18 16:02:36;;;;;;;4.97;3.30;;;4.70;99.90;;;;;;5016658;28;20317;-70
2023/12/18 16:05:03;;;;;;;6.35;3.25;;;4.60;99.90;;;;;;5016119;28;20206;-71
2023/12/18 16:07:30;;;;;;;3.47;2.78;;;4.50;99.90;;;;;;5012214;28;20298;-70
2023/12/18 16:09:57;;;;;;;4.20;3.25;;;4.40;99.90;;;;;;5011913;28;20214;-71
2023/12/18 16:12:26;;;;;;;4.35;2.78;;;4.30;99.90;;;;;;5015430;28;20240;-71
2023/12/18 16:14:53;;;;;;;3.88;3.05;;;4.20;99.90;;;;;;5016560;28;20310;-71
2023/12/18 16:17:20;;;;;;;7.82;3.28;;;4.20;99.90;;;;;;5014088;28;20205;-70
2023/12/18 16:19:47;;;;;;;7.03;2.97;;;4.10;99.90;;;;;;5016075;28;20435;-70
2023/12/18 16:22:16;;;;;;;5.05;3.10;;;4.10;99.90;;;;;;5015641;28;20261;-70
2023/12/18 16:24:43;;;;;;;3.00;2.70;;;4.00;99.90;;;;;;5016106;28;20204;-71
2023/12/18 16:27:09;;;;;;;3.08;2.75;;;3.90;99.90;;;;;;5015767;28;20211;-71
2023/12/18 16:29:39;;;;;;;6.25;3.65;;;3.90;99.90;;;;;;5008786;28;20360;-71
2023/12/18 16:32:07;;;;;;;4.65;4.20;;;3.80;99.90;;;;;;5016082;28;20229;-72
2023/12/18 16:34:38;;;;;;;4.18;3.42;;;3.80;99.90;;;;;;5013035;28;20236;-71
2023/12/18 16:37:06;;;;;;;4.40;3.10;;;3.80;99.90;;;;;;5012810;28;20576;-71
2023/12/18 16:39:33;;;;;;;4.32;3.92;;;3.70;99.90;;;;;;5012536;28;20713;-71
2023/12/18 16:42:00;;;;;;;4.95;3.45;;;3.60;99.90;;;;;;5013123;28;20226;-70
2023/12/18 16:44:27;;;;;;;4.28;3.35;;;3.60;99.90;;;;;;5012983;28;20261;-72
2023/12/18 16:46:59;;;;;;;4.25;3.85;;;3.50;99.90;;;;;;5013299;28;20218;-70
2023/12/18 16:49:26;;;;;;;6.40;3.58;;;3.50;99.90;;;;;;5011640;28;20208;-72
2023/12/18 16:51:53;;;;;;;10.52;3.95;;;3.50;99.90;;;;;;5013002;28;20297;-73
2023/12/18 16:54:19;;;;;;;8.63;4.20;;;3.40;99.90;;;;;;5012333;28;20314;-71
2023/12/18 16:56:46;;;;;;;3.95;3.55;;;3.40;99.90;;;;;;5012711;28;20240;-72
2023/12/18 16:59:13;;;;;;;3.40;3.10;;;3.30;99.90;;;;;;5012122;28;20692;-69
2023/12/18 17:01:40;;;;;;;5.88;5.38;;;3.50;99.90;;;;;;5007878;28;20633;-71
2023/12/18 17:04:08;;;;;;;5.57;4.38;;;3.40;99.90;;;;;;5009772;28;20299;-71
2023/12/18 17:06:35;;;;;;;10.00;5.60;;;3.30;99.90;;;;;;5012125;28;20218;-71
2023/12/18 17:09:05;;;;;;;6.57;4.97;;;3.20;99.90;;;;;;5012175;28;20232;-70
2023/12/18 17:11:33;;;;;;;8.68;5.57;;;3.50;99.90;;;;;;5010884;28;20713;-70
2023/12/18 17:13:59;;;;;;;6.85;5.35;;;3.30;99.90;;;;;;5013553;28;20217;-71
2023/12/18 17:16:26;;;;;;;4.85;3.95;;;3.30;99.90;;;;;;5008515;28;20224;-71
2023/12/18 17:18:54;;;;;;;6.88;6.18;;;3.20;99.90;;;;;;5012335;28;20256;-71
2023/12/18 17:21:22;;;;;;;7.18;6.07;;;3.20;99.90;;;;;;5006950;28;20228;-72
2023/12/18 17:23:51;;;;;;;8.68;6.18;;;3.10;99.90;;;;;;5012346;28;20278;-71